Time;durP1;ratioP1;P1;durP2;ratioP2;P2;SDS_P1;SDS_P2;PMS_P1;PMS_P2;Temp;Humidity;BMP_temperature;BMP_pressure;BME280_temperature;BME280_humidity;BME280_pressure;Samples;Min_cycle;Max_cycle;Signal;HPM_P1;HPM_P2
2022/03/13 00:00:16;;;;;;;;;;;;;;;-2.32;58.66;101089.06;5047350;28;19921;-81
2022/03/13 00:02:44;;;;;;;;;;;;;;;-2.36;58.95;101095.75;5046513;28;19986;-81
2022/03/13 00:05:10;;;;;;;;;;;;;;;-2.25;58.39;101087.75;5048348;28;19917;-81
2022/03/13 00:07:38;;;;;;;;;;;;;;;-2.31;58.26;101082.22;5047135;28;20008;-81
2022/03/13 00:10:05;;;;;;;;;;;;;;;-2.59;58.81;101078.88;5047067;28;19966;-82
2022/03/13 00:12:31;;;;;;;;;;;;;;;-2.51;58.27;101079.34;5046840;28;19924;-81
2022/03/13 00:14:57;;;;;;;;;;;;;;;-2.60;58.45;101084.84;5047736;28;19928;-81
2022/03/13 00:17:27;;;;;;;;;;;;;;;-2.42;57.96;101076.41;5047783;28;19920;-82
2022/03/13 00:19:54;;;;;;;;;;;;;;;-2.58;57.76;101072.94;5046948;28;19916;-82
2022/03/13 00:22:19;;;;;;;;;;;;;;;-2.84;58.89;101075.59;5047236;28;19921;-82
2022/03/13 00:24:45;;;;;;;;;;;;;;;-2.67;56.52;101071.47;5045301;28;19927;-82
2022/03/13 00:27:10;;;;;;;;;;;;;;;-2.71;56.51;101065.22;5047311;28;19917;-82
2022/03/13 00:29:36;;;;;;;;;;;;;;;-2.78;58.13;101063.97;5046997;28;19924;-81
2022/03/13 00:32:03;;;;;;;;;;;;;;;-2.72;57.23;101063.44;5046652;28;19921;-82
2022/03/13 00:34:28;;;;;;;;;;;;;;;-2.58;57.70;101061.69;5047162;28;19924;-82
2022/03/13 00:36:54;;;;;;;;;;;;;;;-2.42;57.00;101063.50;5046739;28;19970;-82
2022/03/13 00:39:20;;;;;;;;;;;;;;;-2.44;57.15;101068.56;5047329;28;19916;-83
2022/03/13 00:41:46;;;;;;;;;;;;;;;-2.39;57.73;101058.50;5046446;28;19920;-82
2022/03/13 00:44:12;;;;;;;;;;;;;;;-2.32;57.50;101055.47;5047452;28;19923;-83
2022/03/13 00:46:38;;;;;;;;;;;;;;;-2.18;56.86;101056.28;5046612;28;19974;-83
2022/03/13 00:49:03;;;;;;;;;;;;;;;-2.34;56.22;101059.66;5047036;28;19916;-82
2022/03/13 00:51:28;;;;;;;;;;;;;;;-2.57;56.34;101059.19;5045852;28;19975;-83
2022/03/13 00:53:54;;;;;;;;;;;;;;;-2.56;56.31;101058.41;5028119;28;20007;-84
2022/03/13 00:56:19;;;;;;;;;;;;;;;-2.72;57.31;101066.94;5047127;28;19921;-82
2022/03/13 00:58:44;;;;;;;;;;;;;;;-2.79;56.74;101063.88;5046313;28;19923;-82
2022/03/13 01:01:10;;;;;;;;;;;;;;;-3.08;57.37;101068.16;5046204;28;20660;-82
2022/03/13 01:03:36;;;;;;;;;;;;;;;-2.80;57.00;101068.13;5029393;28;19916;-81
2022/03/13 01:06:02;;;;;;;;;;;;;;;-2.95;56.41;101072.34;5045869;28;19931;-81
2022/03/13 01:08:27;;;;;;;;;;;;;;;-3.24;56.72;101067.19;5046883;28;19924;-81
2022/03/13 01:10:53;;;;;;;;;;;;;;;-3.37;56.80;101071.50;5046052;28;19967;-80
2022/03/13 01:13:20;;;;;;;;;;;;;;;-3.28;57.18;101074.66;5047375;28;19931;-81
2022/03/13 01:15:46;;;;;;;;;;;;;;;-3.28;56.89;101072.94;5046037;28;19916;-81
2022/03/13 01:18:11;;;;;;;;;;;;;;;-3.18;56.54;101071.84;5047465;28;20355;-82
2022/03/13 01:20:37;;;;;;;;;;;;;;;-3.03;55.42;101066.72;5046006;28;19928;-82
2022/03/13 01:23:02;;;;;;;;;;;;;;;-2.98;55.07;101070.50;5046816;28;20398;-82
2022/03/13 01:25:27;;;;;;;;;;;;;;;-3.24;55.58;101063.72;5046037;28;19921;-81
2022/03/13 01:27:53;;;;;;;;;;;;;;;-3.17;55.93;101068.44;5046175;28;19917;-81
2022/03/13 01:30:18;;;;;;;;;;;;;;;-3.00;56.29;101064.34;5028868;28;19924;-82
2022/03/13 01:32:51;;;;;;;;;;;;;;;-3.31;57.38;101065.00;5027555;28;20350;-82
2022/03/13 01:35:20;;;;;;;;;;;;;;;-3.38;56.67;101067.09;5047155;28;19978;-82
2022/03/13 01:37:45;;;;;;;;;;;;;;;-3.27;56.80;101058.38;5045529;28;19924;-82
2022/03/13 01:40:12;;;;;;;;;;;;;;;-3.13;56.46;101060.13;5046985;28;19917;-82
2022/03/13 01:42:40;;;;;;;;;;;;;;;-2.98;56.07;101052.44;5027575;28;20409;-81
2022/03/13 01:45:07;;;;;;;;;;;;;;;-3.05;57.18;101060.59;5046974;28;19952;-82
2022/03/13 01:47:33;;;;;;;;;;;;;;;-3.21;57.29;101056.19;5046660;28;20402;-81
2022/03/13 01:49:58;;;;;;;;;;;;;;;-3.26;57.94;101061.06;5045414;28;19921;-81
2022/03/13 01:52:25;;;;;;;;;;;;;;;-3.12;58.65;101056.75;5046408;28;20004;-81
2022/03/13 01:54:51;;;;;;;;;;;;;;;-2.84;57.46;101061.03;5046506;28;19913;-81
2022/03/13 01:57:17;;;;;;;;;;;;;;;-2.86;56.61;101062.59;5046331;28;20395;-81
2022/03/13 01:59:43;;;;;;;;;;;;;;;-2.61;55.55;101058.91;5046437;28;19923;-81
2022/03/13 02:02:08;;;;;;;;;;;;;;;-2.73;56.31;101054.78;5046735;28;20694;-82
2022/03/13 02:04:34;;;;;;;;;;;;;;;-2.49;56.50;101054.47;5046480;28;20318;-82
2022/03/13 02:06:59;;;;;;;;;;;;;;;-2.53;56.59;101060.28;5028404;28;19916;-81
2022/03/13 02:09:25;;;;;;;;;;;;;;;-2.45;57.21;101055.56;5046896;28;19912;-81
2022/03/13 02:11:51;;;;;;;;;;;;;;;-2.24;56.31;101053.31;5045824;28;20000;-82
2022/03/13 02:14:20;;;;;;;;;;;;;;;-2.39;56.64;101046.47;5046886;28;20043;-81
2022/03/13 02:16:46;;;;;;;;;;;;;;;-2.28;56.34;101046.22;5046459;28;19999;-81
2022/03/13 02:19:11;;;;;;;;;;;;;;;-2.41;57.08;101040.31;5049144;28;20019;-82
2022/03/13 02:21:39;;;;;;;;;;;;;;;-2.40;56.67;101042.09;5049542;28;20375;-81
2022/03/13 02:24:07;;;;;;;;;;;;;;;-2.42;56.43;101038.53;5049557;28;19913;-82
2022/03/13 02:26:33;;;;;;;;;;;;;;;-2.35;56.15;101048.44;5032118;28;20061;-81
2022/03/13 02:28:58;;;;;;;;;;;;;;;-2.48;56.42;101045.94;5050450;28;20712;-82
2022/03/13 02:31:27;;;;;;;;;;;;;;;-2.56;56.60;101036.84;5049551;28;20561;-82
2022/03/13 02:33:53;;;;;;;;;;;;;;;-2.36;56.01;101036.31;5032384;28;20375;-82
2022/03/13 02:36:31;;;;;;;;;;;;;;;-2.61;57.05;101033.97;5049301;28;19925;-82
2022/03/13 02:38:57;;;;;;;;;;;;;;;-2.70;57.96;101036.91;5030251;28;20449;-82
2022/03/13 02:41:22;;;;;;;;;;;;;;;-2.82;57.39;101031.00;5043533;28;19978;-82
2022/03/13 02:43:47;;;;;;;;;;;;;;;-2.85;57.13;101029.94;5049799;28;20007;-82
2022/03/13 02:46:20;;;;;;;;;;;;;;;-2.76;57.32;101030.47;5050164;28;19920;-82
2022/03/13 02:48:45;;;;;;;;;;;;;;;-2.91;56.44;101026.16;5048447;28;19975;-81
2022/03/13 02:51:11;;;;;;;;;;;;;;;-3.10;57.73;101029.31;5049053;28;19956;-82
2022/03/13 02:53:37;;;;;;;;;;;;;;;-2.98;57.33;101028.28;5030805;28;19917;-82
2022/03/13 02:56:03;;;;;;;;;;;;;;;-3.00;57.40;101025.59;5049273;28;19921;-81
2022/03/13 02:58:29;;;;;;;;;;;;;;;-3.12;57.12;101030.94;5048417;28;19920;-81
2022/03/13 03:00:56;;;;;;;;;;;;;;;-2.97;57.25;101033.53;5049104;28;19977;-82
2022/03/13 03:03:22;;;;;;;;;;;;;;;-2.91;56.97;101030.44;5048533;28;19916;-81
2022/03/13 03:05:48;;;;;;;;;;;;;;;-2.88;57.02;101038.38;5047569;28;19921;-81
2022/03/13 03:08:13;;;;;;;;;;;;;;;-2.88;58.09;101028.03;5049160;28;19920;-81
2022/03/13 03:10:39;;;;;;;;;;;;;;;-2.79;58.15;101032.88;5048040;28;19997;-82
2022/03/13 03:13:05;;;;;;;;;;;;;;;-2.84;58.38;101021.38;5049083;28;19943;-82
2022/03/13 03:15:31;;;;;;;;;;;;;;;-2.94;58.40;101022.50;5048884;28;19928;-81
2022/03/13 03:17:57;;;;;;;;;;;;;;;-2.96;58.53;101022.41;5049117;28;19931;-81
2022/03/13 03:20:22;;;;;;;;;;;;;;;-2.82;58.87;101025.84;5048436;28;19916;-82
2022/03/13 03:22:50;;;;;;;;;;;;;;;-2.80;59.01;101021.63;5048926;28;19994;-81
2022/03/13 03:25:19;;;;;;;;;;;;;;;-2.91;59.50;101020.13;5047921;28;20455;-82
2022/03/13 03:27:45;;;;;;;;;;;;;;;-2.89;59.70;101021.09;5047990;28;19916;-82
2022/03/13 03:30:10;;;;;;;;;;;;;;;-2.76;58.62;101020.16;5047931;28;20295;-82
2022/03/13 03:32:36;;;;;;;;;;;;;;;-2.81;58.59;101016.38;5029838;28;19916;-82
2022/03/13 03:35:01;;;;;;;;;;;;;;;-2.72;56.14;101017.84;5047834;28;19916;-82
2022/03/13 03:37:31;;;;;;;;;;;;;;;-2.90;56.82;101016.75;5048467;28;20360;-82
2022/03/13 03:39:56;;;;;;;;;;;;;;;-2.92;57.37;101016.66;5048468;28;20011;-82
2022/03/13 03:42:22;;;;;;;;;;;;;;;-2.92;57.44;101019.22;5047217;28;20027;-81
2022/03/13 03:44:47;;;;;;;;;;;;;;;-2.89;58.45;101013.34;5048490;28;19916;-82
2022/03/13 03:47:12;;;;;;;;;;;;;;;-2.76;57.90;101015.00;5048636;28;19917;-82
2022/03/13 03:49:38;;;;;;;;;;;;;;;-2.80;59.13;101003.56;5048013;28;19979;-82
2022/03/13 03:52:03;;;;;;;;;;;;;;;-2.75;58.81;101007.34;5048728;28;19917;-82
2022/03/13 03:54:29;;;;;;;;;;;;;;;-2.69;58.23;101009.38;5030670;28;19920;-82
2022/03/13 03:56:54;;;;;;;;;;;;;;;-2.84;58.92;101005.88;5048600;28;20840;-82
2022/03/13 03:59:20;;;;;;;;;;;;;;;-2.58;58.31;101010.00;5047461;28;20002;-82
2022/03/13 04:01:45;;;;;;;;;;;;;;;-2.51;57.72;101019.91;5047663;28;20453;-81
2022/03/13 04:04:11;;;;;;;;;;;;;;;-2.47;57.54;101011.53;5047257;28;19921;-82
2022/03/13 04:06:39;;;;;;;;;;;;;;;-2.49;57.75;101007.06;5047715;28;19922;-81
2022/03/13 04:09:09;;;;;;;;;;;;;;;-2.36;58.03;101002.72;5047709;28;19939;-82
2022/03/13 04:11:35;;;;;;;;;;;;;;;-2.42;57.66;101002.34;5046872;28;19919;-82
2022/03/13 04:14:01;;;;;;;;;;;;;;;-2.43;58.57;101003.16;5030275;28;20384;-81
2022/03/13 04:16:26;;;;;;;;;;;;;;;-2.48;58.71;101003.69;5047892;28;19923;-82
2022/03/13 04:18:51;;;;;;;;;;;;;;;-2.41;58.79;101014.47;5048371;28;19912;-82
2022/03/13 04:21:17;;;;;;;;;;;;;;;-2.47;57.99;101011.53;5046514;28;19921;-82
2022/03/13 04:23:43;;;;;;;;;;;;;;;-2.49;57.71;101007.94;5047145;28;19916;-82
2022/03/13 04:26:08;;;;;;;;;;;;;;;-2.58;57.90;101010.00;5047566;28;20385;-82
2022/03/13 04:28:33;;;;;;;;;;;;;;;-2.52;58.83;101015.53;5046201;28;19916;-82
2022/03/13 04:31:00;;;;;;;;;;;;;;;-2.62;58.62;101015.81;5046504;28;19967;-82
2022/03/13 04:33:29;;;;;;;;;;;;;;;-2.40;58.81;101007.59;5028194;28;19927;-82
2022/03/13 04:35:57;;;;;;;;;;;;;;;-2.30;58.98;101014.19;5047100;28;19920;-82
2022/03/13 04:38:26;;;;;;;;;;;;;;;-2.27;59.10;101016.97;5046727;28;19926;-83
2022/03/13 04:40:53;;;;;;;;;;;;;;;-2.28;58.91;101005.72;5046166;28;19933;-84
2022/03/13 04:43:18;;;;;;;;;;;;;;;-2.23;58.65;101013.75;5047098;28;19917;-84
2022/03/13 04:45:44;;;;;;;;;;;;;;;-2.12;58.52;101010.09;5046494;28;19928;-83
2022/03/13 04:48:09;;;;;;;;;;;;;;;-2.09;58.35;101019.72;5047359;28;19916;-83
2022/03/13 04:50:34;;;;;;;;;;;;;;;-2.17;58.23;101016.69;5045956;28;19912;-84
2022/03/13 04:53:00;;;;;;;;;;;;;;;-2.06;58.03;101014.72;5047145;28;19922;-83
2022/03/13 04:55:25;;;;;;;;;;;;;;;-2.17;58.60;101020.16;5047225;28;19936;-82
2022/03/13 04:57:50;;;;;;;;;;;;;;;-2.10;57.77;101024.00;5047575;28;19920;-82
2022/03/13 05:00:17;;;;;;;;;;;;;;;-2.07;57.91;101021.59;5028326;28;20019;-83
2022/03/13 05:02:43;;;;;;;;;;;;;;;-2.19;58.40;101021.78;5047148;28;19999;-82
2022/03/13 05:05:09;;;;;;;;;;;;;;;-2.07;57.65;101019.00;5046720;28;20358;-82
2022/03/13 05:07:38;;;;;;;;;;;;;;;-2.23;58.97;101019.81;5046237;28;19928;-82
2022/03/13 05:10:04;;;;;;;;;;;;;;;-2.32;58.76;101019.28;5046353;28;19917;-81
2022/03/13 05:12:29;;;;;;;;;;;;;;;-1.94;57.97;101025.75;5046515;28;19956;-81
2022/03/13 05:14:55;;;;;;;;;;;;;;;-2.10;59.10;101025.69;5045958;28;19955;-82
2022/03/13 05:17:20;;;;;;;;;;;;;;;-1.96;57.63;101022.22;5047104;28;20395;-82
2022/03/13 05:19:46;;;;;;;;;;;;;;;-2.02;58.19;101020.16;5046047;28;19916;-82
2022/03/13 05:22:11;;;;;;;;;;;;;;;-1.88;59.00;101031.28;5046478;28;19927;-82
2022/03/13 05:24:36;;;;;;;;;;;;;;;-1.75;58.38;101021.63;5045772;28;19940;-82
2022/03/13 05:27:02;;;;;;;;;;;;;;;-1.75;58.58;101017.31;5046557;28;20689;-82
2022/03/13 05:29:27;;;;;;;;;;;;;;;-1.81;58.86;101014.41;5047217;28;20326;-82
2022/03/13 05:31:52;;;;;;;;;;;;;;;-1.78;59.39;101031.81;5046936;28;19978;-83
2022/03/13 05:34:18;;;;;;;;;;;;;;;-1.78;59.01;101031.81;5046700;28;19999;-81
2022/03/13 05:36:43;;;;;;;;;;;;;;;-1.63;58.94;101028.38;5046242;28;19993;-82
2022/03/13 05:39:09;;;;;;;;;;;;;;;-1.56;58.12;101027.03;5043294;28;20380;-81
2022/03/13 05:41:39;;;;;;;;;;;;;;;-1.57;58.12;101037.28;5045025;28;20395;-82
2022/03/13 05:44:04;;;;;;;;;;;;;;;-1.71;58.96;101036.53;5037308;28;19917;-82
2022/03/13 05:46:30;;;;;;;;;;;;;;;-1.67;58.69;101041.97;5036358;28;19917;-82
2022/03/13 05:48:55;;;;;;;;;;;;;;;-1.67;59.29;101036.78;5036698;28;19917;-81
2022/03/13 05:51:20;;;;;;;;;;;;;;;-1.54;59.60;101030.56;5016530;28;20322;-82
2022/03/13 05:53:46;;;;;;;;;;;;;;;-1.45;58.94;101027.63;5048412;28;19981;-82
2022/03/13 05:56:11;;;;;;;;;;;;;;;-1.32;58.24;101030.03;5050449;28;20417;-80
2022/03/13 05:58:37;;;;;;;;;;;;;;;-1.23;58.32;101031.38;5051013;28;19943;-82
2022/03/13 06:01:05;;;;;;;;;;;;;;;-1.63;59.24;101033.53;5049940;28;19956;-84
2022/03/13 06:03:31;;;;;;;;;;;;;;;-1.63;59.30;101037.84;5047954;28;19923;-83
2022/03/13 06:05:57;;;;;;;;;;;;;;;-1.22;58.40;101046.06;5040560;28;19916;-84
2022/03/13 06:08:23;;;;;;;;;;;;;;;-0.90;55.62;101037.44;5045959;28;20321;-83
2022/03/13 06:10:48;;;;;;;;;;;;;;;-0.68;55.34;101038.56;5049693;28;19923;-81
2022/03/13 06:13:14;;;;;;;;;;;;;;;-0.42;54.50;101038.22;5050209;28;19916;-82
2022/03/13 06:15:39;;;;;;;;;;;;;;;-0.28;54.99;101035.41;5050457;28;20394;-82
2022/03/13 06:18:05;;;;;;;;;;;;;;;-0.39;55.95;101035.78;5047091;28;19920;-83
2022/03/13 06:20:30;;;;;;;;;;;;;;;-0.25;55.58;101033.88;5049685;28;19951;-83
2022/03/13 06:22:57;;;;;;;;;;;;;;;-0.19;52.11;101041.06;5049721;28;20397;-82
2022/03/13 06:25:22;;;;;;;;;;;;;;;-0.10;50.06;101038.91;5021125;28;19920;-83
2022/03/13 06:27:47;;;;;;;;;;;;;;;0.15;50.27;101034.94;5036750;28;20387;-81
2022/03/13 06:30:16;;;;;;;;;;;;;;;0.52;49.89;101036.69;5032732;28;19920;-82
2022/03/13 06:32:44;;;;;;;;;;;;;;;1.19;50.13;101033.69;5049617;28;20398;-82
2022/03/13 06:35:10;;;;;;;;;;;;;;;1.24;49.31;101031.31;5049950;28;19916;-82
2022/03/13 06:37:36;;;;;;;;;;;;;;;1.47;48.00;101034.91;5030878;28;20307;-81
2022/03/13 06:40:02;;;;;;;;;;;;;;;2.00;47.49;101037.13;5048420;28;19925;-82
2022/03/13 06:42:27;;;;;;;;;;;;;;;2.19;44.80;101037.00;5047272;28;19943;-81
2022/03/13 06:44:53;;;;;;;;;;;;;;;2.55;42.96;101043.63;5047887;28;19917;-81
2022/03/13 06:47:18;;;;;;;;;;;;;;;2.97;39.96;101038.31;5047646;28;19916;-82
2022/03/13 06:49:44;;;;;;;;;;;;;;;2.86;39.15;101033.56;5047910;28;19956;-82
2022/03/13 06:52:09;;;;;;;;;;;;;;;3.03;40.07;101031.59;5047753;28;19924;-81
2022/03/13 06:54:35;;;;;;;;;;;;;;;3.46;39.49;101028.72;5047652;28;19916;-81
2022/03/13 06:57:00;;;;;;;;;;;;;;;3.63;38.58;101029.31;5049749;28;20447;-81
2022/03/13 06:59:25;;;;;;;;;;;;;;;3.55;36.57;101027.34;5049686;28;19913;-81
2022/03/13 07:01:51;;;;;;;;;;;;;;;3.58;36.11;101026.56;5048817;28;20015;-82
2022/03/13 07:04:17;;;;;;;;;;;;;;;3.58;35.49;101018.72;5011546;28;19913;-81
2022/03/13 07:06:42;;;;;;;;;;;;;;;3.89;35.24;101023.28;5029604;28;19921;-82
2022/03/13 07:09:08;;;;;;;;;;;;;;;3.99;35.16;101026.19;5042068;28;19920;-82
2022/03/13 07:11:34;;;;;;;;;;;;;;;4.06;35.96;101015.09;5049437;28;19917;-82
2022/03/13 07:14:02;;;;;;;;;;;;;;;3.99;36.55;101018.38;5049388;28;19924;-82
2022/03/13 07:16:27;;;;;;;;;;;;;;;4.45;35.26;101022.47;5049688;28;19913;-82
2022/03/13 07:18:52;;;;;;;;;;;;;;;3.98;34.18;101020.06;5049332;28;19942;-82
2022/03/13 07:21:17;;;;;;;;;;;;;;;4.48;34.41;101020.81;5049364;28;19921;-82
2022/03/13 07:23:43;;;;;;;;;;;;;;;4.34;35.40;101021.22;5049009;28;19913;-81
2022/03/13 07:26:08;;;;;;;;;;;;;;;3.90;34.31;101021.56;5049052;28;19917;-80
2022/03/13 07:28:34;;;;;;;;;;;;;;;3.22;35.50;101017.47;5049132;28;20446;-81
2022/03/13 07:30:59;;;;;;;;;;;;;;;3.83;34.66;101015.25;5049447;28;20774;-82
2022/03/13 07:33:24;;;;;;;;;;;;;;;4.01;36.47;101009.72;5047823;28;20425;-85
2022/03/13 07:35:49;;;;;;;;;;;;;;;4.71;36.85;101007.56;5034013;28;19923;-82
2022/03/13 07:38:15;;;;;;;;;;;;;;;5.14;35.88;101000.97;5047553;28;20442;-84
2022/03/13 07:40:41;;;;;;;;;;;;;;;4.62;34.18;101013.41;5043393;28;20435;-87
2022/03/13 07:43:07;;;;;;;;;;;;;;;4.36;35.89;101006.50;5042981;28;20386;-85
2022/03/13 07:45:33;;;;;;;;;;;;;;;4.71;36.74;100997.13;5047152;28;19924;-83
2022/03/13 07:47:59;;;;;;;;;;;;;;;4.59;35.71;100997.63;5048897;28;20442;-82
2022/03/13 07:50:26;;;;;;;;;;;;;;;4.94;38.65;100997.78;5030459;28;20310;-81
2022/03/13 07:52:51;;;;;;;;;;;;;;;5.12;37.96;100993.91;5046151;28;19913;-83
2022/03/13 07:55:17;;;;;;;;;;;;;;;5.56;35.09;100997.72;5046942;28;19917;-82
2022/03/13 07:57:43;;;;;;;;;;;;;;;5.30;34.94;100996.13;5030572;28;20430;-86
2022/03/13 08:00:15;;;;;;;;;;;;;;;4.76;36.59;100992.03;5044070;28;20690;-83
2022/03/13 08:02:44;;;;;;;;;;;;;;;4.16;35.63;100995.41;5047241;28;19956;-81
2022/03/13 08:05:10;;;;;;;;;;;;;;;4.30;38.60;100995.00;5047975;28;19944;-82
2022/03/13 08:07:35;;;;;;;;;;;;;;;4.45;37.84;100997.19;5047588;28;20454;-83
2022/03/13 08:10:01;;;;;;;;;;;;;;;4.86;35.55;100995.78;5046995;28;19928;-82
2022/03/13 08:12:27;;;;;;;;;;;;;;;5.22;36.97;100989.81;5047337;28;19928;-84
2022/03/13 08:14:54;;;;;;;;;;;;;;;5.97;34.67;100993.53;5045801;28;19931;-82
2022/03/13 08:17:19;;;;;;;;;;;;;;;5.45;35.59;100988.69;5037168;28;19921;-82
2022/03/13 08:19:45;;;;;;;;;;;;;;;5.05;36.99;100989.34;5042486;28;19964;-83
2022/03/13 08:22:11;;;;;;;;;;;;;;;5.43;35.74;100986.88;5026239;28;19982;-82
2022/03/13 08:24:36;;;;;;;;;;;;;;;5.68;35.67;100970.94;5045966;28;19932;-82
2022/03/13 08:27:01;;;;;;;;;;;;;;;6.40;35.38;100986.69;5045840;28;19925;-83
2022/03/13 08:29:27;;;;;;;;;;;;;;;6.76;33.63;100981.34;5044780;28;19917;-82
2022/03/13 08:31:52;;;;;;;;;;;;;;;6.22;35.15;100984.50;5045090;28;19920;-83
2022/03/13 08:34:19;;;;;;;;;;;;;;;5.81;36.13;100981.72;5047670;28;19919;-82
2022/03/13 08:36:46;;;;;;;;;;;;;;;5.94;35.59;100970.72;5025898;28;20697;-83
2022/03/13 08:39:11;;;;;;;;;;;;;;;5.90;35.51;100969.78;5047104;28;20009;-83
2022/03/13 08:41:37;;;;;;;;;;;;;;;6.16;36.45;100968.66;5046017;28;20398;-83
2022/03/13 08:44:03;;;;;;;;;;;;;;;6.21;35.14;100967.91;5039000;28;19948;-86
2022/03/13 08:46:28;;;;;;;;;;;;;;;6.27;34.39;100960.19;5036540;28;19960;-85
2022/03/13 08:48:53;;;;;;;;;;;;;;;6.03;34.15;100964.88;5027031;28;19927;-85
2022/03/13 08:51:21;;;;;;;;;;;;;;;5.99;35.88;100960.38;5027193;28;20586;-85
2022/03/13 08:53:47;;;;;;;;;;;;;;;6.25;34.30;100959.25;5027514;28;19913;-85
2022/03/13 08:56:13;;;;;;;;;;;;;;;6.08;34.82;100956.25;5042628;28;19913;-85
2022/03/13 08:58:42;;;;;;;;;;;;;;;6.51;33.88;100950.22;5047322;28;20043;-85
2022/03/13 09:01:08;;;;;;;;;;;;;;;6.90;33.66;100952.78;5047049;28;19920;-85
2022/03/13 09:03:34;;;;;;;;;;;;;;;6.80;32.25;100945.59;5028077;28;19980;-85
2022/03/13 09:05:59;;;;;;;;;;;;;;;6.30;32.01;100941.00;5046922;28;19955;-85
2022/03/13 09:08:24;;;;;;;;;;;;;;;5.92;32.28;100949.75;5046199;28;19923;-85
2022/03/13 09:10:50;;;;;;;;;;;;;;;5.97;33.06;100907.97;5046716;28;19956;-85
2022/03/13 09:13:16;;;;;;;;;;;;;;;6.36;35.67;100938.53;5045502;28;19970;-86
2022/03/13 09:15:41;;;;;;;;;;;;;;;6.52;31.23;100931.91;5046940;28;20377;-86
2022/03/13 09:18:07;;;;;;;;;;;;;;;6.12;30.97;100930.13;5047077;28;19996;-85
2022/03/13 09:20:32;;;;;;;;;;;;;;;5.98;31.38;100937.66;5047554;28;19917;-86
2022/03/13 09:22:58;;;;;;;;;;;;;;;6.11;32.48;100931.88;5046893;28;19919;-85
2022/03/13 09:25:23;;;;;;;;;;;;;;;6.45;32.52;100923.00;5024515;28;20011;-85
2022/03/13 09:27:49;;;;;;;;;;;;;;;6.87;31.03;100920.34;5029012;28;19927;-85
2022/03/13 09:30:14;;;;;;;;;;;;;;;7.11;31.52;100923.44;5031142;28;19971;-85
2022/03/13 09:32:40;;;;;;;;;;;;;;;7.16;30.84;100915.66;5030950;28;19925;-85
2022/03/13 09:35:06;;;;;;;;;;;;;;;6.85;29.86;100920.31;5049697;28;21100;-86
2022/03/13 09:37:31;;;;;;;;;;;;;;;6.59;29.57;100910.19;5050888;28;19920;-85
2022/03/13 09:39:56;;;;;;;;;;;;;;;6.48;29.29;100914.34;5050606;28;19921;-85
2022/03/13 09:42:22;;;;;;;;;;;;;;;6.21;29.88;100902.41;5050013;28;19963;-85
2022/03/13 09:44:47;;;;;;;;;;;;;;;6.16;29.10;100900.53;5051014;28;20516;-85
2022/03/13 09:47:12;;;;;;;;;;;;;;;6.25;29.52;100901.59;5050579;28;19971;-85
2022/03/13 09:49:41;;;;;;;;;;;;;;;6.82;29.72;100900.16;5050400;28;19924;-86
2022/03/13 09:52:07;;;;;;;;;;;;;;;7.20;30.50;100893.88;5050588;28;19916;-87
2022/03/13 09:54:33;;;;;;;;;;;;;;;7.38;30.40;100895.94;5051180;28;20367;-86
2022/03/13 09:57:00;;;;;;;;;;;;;;;6.83;27.31;100898.44;5050943;28;19970;-85
2022/03/13 09:59:26;;;;;;;;;;;;;;;6.89;28.18;100897.66;5050662;28;19916;-85
2022/03/13 10:01:51;;;;;;;;;;;;;;;7.11;27.50;100891.09;5050777;28;19982;-85
2022/03/13 10:04:17;;;;;;;;;;;;;;;7.34;29.22;100887.13;5050976;28;19913;-86
2022/03/13 10:07:01;;;;;;;;;;;;;;;7.54;26.69;100878.72;5050501;28;19970;-88
2022/03/13 10:09:28;;;;;;;;;;;;;;;7.77;28.30;100878.16;5050366;28;20424;-88
2022/03/13 10:12:03;;;;;;;;;;;;;;;8.03;29.40;100873.31;5050519;28;19921;-85
2022/03/13 10:14:29;;;;;;;;;;;;;;;7.82;25.65;100866.00;5050275;28;19917;-86
2022/03/13 10:16:54;;;;;;;;;;;;;;;7.62;24.91;100871.81;5050822;28;19923;-87
2022/03/13 10:19:19;;;;;;;;;;;;;;;7.70;25.79;100870.19;5050386;28;19923;-86
2022/03/13 10:22:05;;;;;;;;;;;;;;;7.49;26.32;100868.13;5048775;28;19925;-87
2022/03/13 10:24:38;;;;;;;;;;;;;;;7.25;26.11;100865.97;5032048;28;20399;-87
2022/03/13 10:27:09;;;;;;;;;;;;;;;7.53;24.22;100864.66;5047663;28;19927;-83
2022/03/13 10:29:35;;;;;;;;;;;;;;;7.64;27.40;100862.22;5049975;28;19923;-86
2022/03/13 10:32:00;;;;;;;;;;;;;;;7.97;24.47;100860.97;5049883;28;20003;-85
2022/03/13 10:34:26;;;;;;;;;;;;;;;7.70;27.24;100851.81;5049819;28;20275;-85
2022/03/13 10:36:52;;;;;;;;;;;;;;;7.53;26.40;100851.53;5049907;28;19928;-87
2022/03/13 10:39:18;;;;;;;;;;;;;;;7.79;24.88;100844.94;5049336;28;19924;-88
2022/03/13 10:41:44;;;;;;;;;;;;;;;8.10;24.33;100837.50;5031429;28;20301;-85
2022/03/13 10:44:21;;;;;;;;;;;;;;;7.99;24.22;100843.47;5050034;28;19916;-84
2022/03/13 10:46:53;;;;;;;;;;;;;;;7.49;23.02;100841.88;5045670;28;19925;-86
2022/03/13 10:49:31;;;;;;;;;;;;;;;7.77;24.33;100831.78;5049575;28;20011;-86
2022/03/13 10:51:57;;;;;;;;;;;;;;;7.76;23.70;100834.41;5049206;28;19928;-86
2022/03/13 10:54:30;;;;;;;;;;;;;;;8.12;25.40;100830.50;5049250;28;19930;-88
2022/03/13 10:57:05;;;;;;;;;;;;;;;8.50;25.04;100824.88;5048798;28;19920;-87
2022/03/13 10:59:30;;;;;;;;;;;;;;;8.18;23.56;100820.06;5044457;28;19923;-85
2022/03/13 11:02:14;;;;;;;;;;;;;;;8.28;24.62;100818.44;5048863;28;19920;-87
2022/03/13 11:04:55;;;;;;;;;;;;;;;8.16;23.77;100820.06;5030445;28;19952;-85
2022/03/13 11:07:21;;;;;;;;;;;;;;;8.35;21.36;100820.28;5041574;28;19940;-84
2022/03/13 11:09:47;;;;;;;;;;;;;;;8.44;21.86;100815.16;5031153;28;19966;-85
2022/03/13 11:12:20;;;;;;;;;;;;;;;8.87;23.94;100806.84;5048422;28;19919;-84
2022/03/13 11:14:50;;;;;;;;;;;;;;;8.75;23.58;100805.84;5048743;28;20318;-86
2022/03/13 11:17:20;;;;;;;;;;;;;;;9.29;25.68;100797.56;5049377;28;19916;-84
2022/03/13 11:19:49;;;;;;;;;;;;;;;9.48;23.31;100794.22;5048918;28;19923;-89
2022/03/13 11:22:17;;;;;;;;;;;;;;;9.68;22.36;100796.97;5048823;28;19917;-90
2022/03/13 11:24:43;;;;;;;;;;;;;;;9.86;21.84;100790.03;5048496;28;19935;-91
2022/03/13 11:27:09;;;;;;;;;;;;;;;8.74;20.92;100790.03;5020355;28;19913;-92
2022/03/13 11:29:44;;;;;;;;;;;;;;;8.67;20.85;100801.41;5032899;28;19912;-88
2022/03/13 11:32:28;;;;;;;;;;;;;;;8.95;19.97;100789.38;5033864;28;19920;-89
2022/03/13 11:35:18;;;;;;;;;;;;;;;9.23;23.02;100785.22;5049755;28;19921;-89
2022/03/13 11:38:02;;;;;;;;;;;;;;;9.16;21.34;100783.44;5048829;28;19940;-89
2022/03/13 11:40:36;;;;;;;;;;;;;;;8.91;22.54;100780.59;5028402;28;20318;-92
2022/03/13 11:43:20;;;;;;;;;;;;;;;9.09;20.99;100779.84;5035541;28;20015;-87
2022/03/13 11:45:50;;;;;;;;;;;;;;;9.35;20.28;100794.97;5043972;28;19928;-88
2022/03/13 11:48:22;;;;;;;;;;;;;;;9.22;20.86;100782.56;5048388;28;20390;-86
2022/03/13 11:50:58;;;;;;;;;;;;;;;9.36;19.52;100777.41;5048004;28;19935;-88
2022/03/13 11:53:24;;;;;;;;;;;;;;;9.78;20.11;100779.47;5030122;28;19952;-86
2022/03/13 11:55:59;;;;;;;;;;;;;;;9.53;21.13;100775.81;5045240;28;19920;-89
2022/03/13 11:58:43;;;;;;;;;;;;;;;9.63;21.82;100779.38;5046279;28;19923;-85
2022/03/13 12:01:21;;;;;;;;;;;;;;;9.72;21.06;100768.00;5029534;28;19917;-87
2022/03/13 12:04:04;;;;;;;;;;;;;;;9.98;20.93;100769.00;5047565;28;19912;-86
2022/03/13 12:06:39;;;;;;;;;;;;;;;9.77;20.97;100766.28;5045180;28;19923;-86
2022/03/13 12:09:08;;;;;;;;;;;;;;;9.89;21.97;100760.19;5028111;28;19921;-86
2022/03/13 12:11:42;;;;;;;;;;;;;;;10.04;20.07;100765.53;5027911;28;19987;-86
2022/03/13 12:14:12;;;;;;;;;;;;;;;9.87;20.93;100762.81;5028598;28;19967;-83
2022/03/13 12:16:38;;;;;;;;;;;;;;;9.88;21.09;100754.03;5027325;28;20410;-88
2022/03/13 12:19:04;;;;;;;;;;;;;;;9.86;21.24;100753.16;5028159;28;19917;-88
2022/03/13 12:21:30;;;;;;;;;;;;;;;9.96;19.55;100751.41;5028031;28;19967;-85
2022/03/13 12:24:08;;;;;;;;;;;;;;;10.19;20.76;100759.41;5028227;28;19967;-84
2022/03/13 12:26:38;;;;;;;;;;;;;;;9.55;19.03;100760.88;5028238;28;19919;-83
2022/03/13 12:29:04;;;;;;;;;;;;;;;9.67;20.13;100745.16;5028346;28;19913;-82
2022/03/13 12:31:37;;;;;;;;;;;;;;;9.50;19.34;100750.31;5028339;28;19917;-83
2022/03/13 12:34:03;;;;;;;;;;;;;;;9.63;20.19;100750.38;5010188;28;20019;-83
2022/03/13 12:36:36;;;;;;;;;;;;;;;9.75;19.56;100744.31;5027661;28;19960;-83
2022/03/13 12:39:02;;;;;;;;;;;;;;;9.35;19.70;100747.59;5027505;28;20391;-83